Time;durP1;ratioP1;P1;durP2;ratioP2;P2;SDS_P1;SDS_P2;PMS_P1;PMS_P2;Temp;Humidity;BMP_temperature;BMP_pressure;BME280_temperature;BME280_humidity;BME280_pressure;Samples;Min_cycle;Max_cycle;Signal;HPM_P1;HPM_P2
2022/06/27 00:01:58;;;;;;;6.38;1.40;;;17.20;72.90;;;;;;5027834;28;20040;-76
2022/06/27 00:04:24;;;;;;;5.15;1.30;;;16.30;72.40;;;;;;5018209;28;20029;-76
2022/06/27 00:06:50;;;;;;;4.75;1.25;;;17.10;64.10;;;;;;5029855;28;20029;-76
2022/06/27 00:09:16;;;;;;;6.70;1.30;;;16.60;73.90;;;;;;5019320;28;20076;-76
2022/06/27 00:11:41;;;;;;;6.97;1.55;;;17.30;75.20;;;;;;5024684;28;20111;-76
2022/06/27 00:14:07;;;;;;;4.60;1.40;;;16.10;72.70;;;;;;5023676;28;20048;-76
2022/06/27 00:16:33;;;;;;;6.43;1.23;;;15.80;72.90;;;;;;5027219;28;20036;-76
2022/06/27 00:18:58;;;;;;;6.32;1.38;;;16.30;72.30;;;;;;5025130;28;20440;-76
2022/06/27 00:21:24;;;;;;;6.07;1.70;;;17.10;73.90;;;;;;5031004;28;20107;-76
2022/06/27 00:23:50;;;;;;;8.40;1.40;;;16.10;76.20;;;;;;5027472;28;20021;-76
2022/06/27 00:26:16;;;;;;;8.48;1.63;;;15.90;75.40;;;;;;5024724;28;20042;-76
2022/06/27 00:28:41;;;;;;;4.65;1.20;;;16.10;73.40;;;;;;5029084;28;20088;-76
2022/06/27 00:31:07;;;;;;;5.50;1.30;;;13.40;72.70;;;;;;5029936;28;20029;-76
2022/06/27 00:33:33;;;;;;;5.55;1.40;;;17.10;76.10;;;;;;5029045;28;20033;-76
2022/06/27 00:35:58;;;;;;;4.80;1.40;;;16.90;77.30;;;;;;5027689;28;20029;-76
2022/06/27 00:38:24;;;;;;;6.95;1.60;;;16.60;73.50;;;;;;5027883;28;20030;-76
2022/06/27 00:40:50;;;;;;;6.10;1.30;;;19.20;76.70;;;;;;5026900;28;20041;-76
2022/06/27 00:43:15;;;;;;;4.18;1.30;;;15.40;75.40;;;;;;5024919;28;20396;-76
2022/06/27 00:45:41;;;;;;;4.32;1.20;;;17.40;76.10;;;;;;5028345;28;20032;-76
2022/06/27 00:48:07;;;;;;;4.00;1.35;;;16.10;76.70;;;;;;5030618;28;20064;-76
2022/06/27 00:50:33;;;;;;;6.82;1.65;;;15.90;64.20;;;;;;5026247;28;20029;-76
2022/06/27 00:52:59;;;;;;;9.93;1.23;;;16.60;72.30;;;;;;5025312;28;20057;-77
2022/06/27 00:55:24;;;;;;;7.20;1.35;;;15.90;73.00;;;;;;5027765;28;20477;-76
2022/06/27 00:57:50;;;;;;;7.60;1.30;;;16.00;71.50;;;;;;5024426;28;20029;-76
2022/06/27 01:00:17;;;;;;;6.47;1.50;;;15.80;63.80;;;;;;5026470;28;20037;-76
2022/06/27 01:02:43;;;;;;;9.48;1.58;;;14.20;72.60;;;;;;5026573;28;20562;-76
2022/06/27 01:05:12;;;;;;;5.00;1.23;;;15.80;65.00;;;;;;5028080;28;20041;-76
2022/06/27 01:07:39;;;;;;;8.32;1.67;;;16.50;71.30;;;;;;5023907;28;20443;-76
2022/06/27 01:10:05;;;;;;;8.68;1.80;;;17.10;75.90;;;;;;5017912;28;20022;-76
2022/06/27 01:12:32;;;;;;;8.07;1.73;;;16.20;75.70;;;;;;5025828;28;20029;-76
2022/06/27 01:14:59;;;;;;;10.63;2.08;;;15.60;75.40;;;;;;5021894;28;20025;-77
2022/06/27 01:17:26;;;;;;;7.68;2.20;;;15.90;75.80;;;;;;5026933;28;20030;-76
2022/06/27 01:19:52;;;;;;;8.68;2.10;;;15.10;75.80;;;;;;5022431;28;20085;-77
2022/06/27 01:22:18;;;;;;;6.28;2.20;;;15.90;75.80;;;;;;5022173;28;20024;-76
2022/06/27 01:24:44;;;;;;;9.23;2.58;;;15.60;66.90;;;;;;5019707;28;20100;-76
2022/06/27 01:27:10;;;;;;;6.22;2.20;;;15.90;74.30;;;;;;5024963;28;20138;-76
2022/06/27 01:29:36;;;;;;;6.35;1.85;;;17.30;76.60;;;;;;5020386;28;20037;-77
2022/06/27 01:32:03;;;;;;;10.57;2.20;;;14.90;74.10;;;;;;5023445;28;20408;-77
2022/06/27 01:34:28;;;;;;;9.13;2.10;;;15.50;73.90;;;;;;5028227;28;20037;-76
2022/06/27 01:36:54;;;;;;;11.95;2.67;;;12.70;71.20;;;;;;5022047;28;20037;-76
2022/06/27 01:39:22;;;;;;;6.05;2.00;;;15.50;68.40;;;;;;5028436;28;20032;-76
2022/06/27 01:41:50;;;;;;;11.40;2.40;;;15.70;74.90;;;;;;5020683;28;20049;-76
2022/06/27 01:44:16;;;;;;;7.70;2.30;;;18.40;78.90;;;;;;5022993;28;20403;-77
2022/06/27 01:46:42;;;;;;;5.95;2.10;;;;;;;;;;5027508;28;20033;-77
2022/06/27 01:49:09;;;;;;;8.60;2.10;;;15.70;75.50;;;;;;5026157;28;20040;-76
2022/06/27 01:51:36;;;;;;;7.57;2.30;;;15.40;66.80;;;;;;5025314;28;20032;-76
2022/06/27 01:54:02;;;;;;;8.77;2.10;;;15.30;73.90;;;;;;5026719;28;20028;-76
2022/06/27 01:56:29;;;;;;;7.05;1.98;;;15.90;80.10;;;;;;5025845;28;20084;-76
2022/06/27 01:58:57;;;;;;;6.50;2.00;;;14.90;81.30;;;;;;5025227;28;20220;-76
2022/06/27 02:01:25;;;;;;;6.95;1.95;;;15.10;82.60;;;;;;5025818;28;20048;-77
2022/06/27 02:03:51;;;;;;;7.45;1.70;;;;;;;;;;5022298;28;20068;-77
2022/06/27 02:06:17;;;;;;;7.05;1.58;;;;;;;;;;5019903;28;20041;-76
2022/06/27 02:08:46;;;;;;;8.02;2.10;;;15.50;79.80;;;;;;5026555;28;20025;-76
2022/06/27 02:11:15;;;;;;;7.47;1.80;;;13.60;74.70;;;;;;5027144;28;20036;-76
2022/06/27 02:13:42;;;;;;;4.78;1.52;;;15.20;66.60;;;;;;5025404;28;20134;-76
2022/06/27 02:16:12;;;;;;;5.63;1.50;;;16.00;81.80;;;;;;5024000;28;20109;-77
2022/06/27 02:18:40;;;;;;;6.78;1.85;;;15.40;84.30;;;;;;5027633;28;20052;-76
2022/06/27 02:21:09;;;;;;;5.38;1.52;;;15.60;79.70;;;;;;5028296;28;20041;-76
2022/06/27 02:23:35;;;;;;;6.05;1.77;;;15.20;66.90;;;;;;5024944;28;20086;-77
2022/06/27 02:26:01;;;;;;;4.78;1.70;;;15.20;77.60;;;;;;5023711;28;20454;-77
2022/06/27 02:28:28;;;;;;;4.72;1.55;;;14.80;80.10;;;;;;5017363;28;20026;-77
2022/06/27 02:30:55;;;;;;;5.97;1.60;;;15.00;66.60;;;;;;5025797;28;20034;-77
2022/06/27 02:33:21;;;;;;;6.95;1.50;;;16.50;79.30;;;;;;5024764;28;20044;-77
2022/06/27 02:35:49;;;;;;;7.68;1.90;;;15.00;66.90;;;;;;5024242;28;20099;-76
2022/06/27 02:38:16;;;;;;;4.22;1.50;;;15.00;67.80;;;;;;5026007;28;20114;-76
2022/06/27 02:40:44;;;;;;;8.93;1.70;;;16.30;72.90;;;;;;5026958;28;20038;-77
2022/06/27 02:43:13;;;;;;;4.55;1.42;;;14.80;72.70;;;;;;5023141;28;20038;-76
2022/06/27 02:45:40;;;;;;;5.90;1.70;;;16.60;75.50;;;;;;5026530;28;20048;-77
2022/06/27 02:48:08;;;;;;;5.25;1.50;;;14.90;68.20;;;;;;5024279;28;20029;-77
2022/06/27 02:50:38;;;;;;;7.63;1.50;;;16.40;75.50;;;;;;5018851;28;20025;-77
2022/06/27 02:53:10;;;;;;;5.43;1.60;;;14.80;66.50;;;;;;5023741;28;20034;-78
2022/06/27 02:55:40;;;;;;;7.13;2.20;;;14.80;81.40;;;;;;5025906;28;20029;-77
2022/06/27 02:58:12;;;;;;;4.80;1.67;;;14.60;77.60;;;;;;5021765;28;20159;-77
2022/06/27 03:00:40;;;;;;;5.93;1.60;;;14.80;75.80;;;;;;5026621;28;20303;-77
2022/06/27 03:03:09;;;;;;;5.60;1.77;;;14.70;67.30;;;;;;5016147;28;20500;-77
2022/06/27 03:05:35;;;;;;;5.13;1.60;;;14.70;67.50;;;;;;5019977;28;20029;-77
2022/06/27 03:08:01;;;;;;;5.75;1.70;;;14.60;75.10;;;;;;5026694;28;20509;-77
2022/06/27 03:10:26;;;;;;;6.43;1.48;;;14.70;75.80;;;;;;5025829;28;20606;-77
2022/06/27 03:12:52;;;;;;;3.80;1.23;;;14.30;78.50;;;;;;5026720;28;20024;-77
2022/06/27 03:15:18;;;;;;;4.68;1.60;;;15.70;80.40;;;;;;5017250;28;20018;-77
2022/06/27 03:17:43;;;;;;;4.28;1.30;;;14.70;74.30;;;;;;5024184;28;20090;-77
2022/06/27 03:20:10;;;;;;;6.28;1.50;;;14.50;68.10;;;;;;5022272;28;20077;-77
2022/06/27 03:22:35;;;;;;;8.43;1.90;;;15.20;80.40;;;;;;5026735;28;20037;-77
2022/06/27 03:25:01;;;;;;;6.97;1.20;;;14.60;68.20;;;;;;5025356;28;20078;-77
2022/06/27 03:27:27;;;;;;;4.40;1.30;;;;;;;;;;5026335;28;20156;-77
2022/06/27 03:29:53;;;;;;;4.53;1.45;;;14.80;82.00;;;;;;5025543;28;20029;-77
2022/06/27 03:32:18;;;;;;;4.20;1.50;;;14.40;81.20;;;;;;5023746;28;20036;-76
2022/06/27 03:34:44;;;;;;;5.78;1.50;;;15.90;75.60;;;;;;5023542;28;20078;-77
2022/06/27 03:37:10;;;;;;;5.43;1.50;;;;;;;;;;5029510;28;20099;-77
2022/06/27 03:39:36;;;;;;;5.05;1.77;;;14.50;68.10;;;;;;5031204;28;20060;-76
2022/06/27 03:42:02;;;;;;;4.43;1.50;;;;;;;;;;5024526;28;20059;-77
2022/06/27 03:44:29;;;;;;;6.35;1.50;;;;;;;;;;5029780;28;20021;-77
2022/06/27 03:46:55;;;;;;;4.30;1.60;;;14.20;85.00;;;;;;5027942;28;20029;-76
2022/06/27 03:52:05;;;;;;;4.63;1.45;;;;;;;;;;5018247;28;20060;-77
2022/06/27 03:54:31;;;;;;;5.80;1.50;;;14.60;87.50;;;;;;5025921;28;20029;-77
2022/06/27 03:56:57;;;;;;;4.40;1.60;;;14.20;73.60;;;;;;5024066;28;20036;-77
2022/06/27 03:59:23;;;;;;;7.65;1.60;;;13.90;83.50;;;;;;5030393;28;20025;-77
2022/06/27 04:01:49;;;;;;;10.13;2.05;;;14.80;83.60;;;;;;5028367;28;20048;-76
2022/06/27 04:04:15;;;;;;;7.00;1.88;;;14.10;83.80;;;;;;5024373;28;20095;-77
2022/06/27 04:06:41;;;;;;;6.20;1.98;;;;;;;;;;5028933;28;20047;-76
2022/06/27 04:09:06;;;;;;;8.75;1.75;;;15.90;77.50;;;;;;5027067;28;20366;-77
2022/06/27 04:11:32;;;;;;;7.20;2.10;;;;;;;;;;5026262;28;20113;-78
2022/06/27 04:13:58;;;;;;;8.68;1.95;;;13.90;84.20;;;;;;5026457;28;20030;-79
2022/06/27 04:16:24;;;;;;;8.55;2.00;;;15.20;86.70;;;;;;5027097;28;20033;-79
2022/06/27 04:18:49;;;;;;;4.25;1.70;;;15.50;88.70;;;;;;5014806;28;20100;-79
2022/06/27 04:21:15;;;;;;;4.68;1.92;;;15.20;87.60;;;;;;5027000;28;20702;-78
2022/06/27 04:23:41;;;;;;;6.40;1.83;;;;;;;;;;5029469;28;20033;-78
2022/06/27 04:26:07;;;;;;;9.73;2.10;;;;;;;;;;5029107;28;20400;-79
2022/06/27 04:28:33;;;;;;;5.78;2.00;;;15.00;75.80;;;;;;5029826;28;20076;-77
2022/06/27 04:30:59;;;;;;;5.53;1.70;;;;;;;;;;5026276;28;20037;-75
2022/06/27 04:33:25;;;;;;;8.98;1.70;;;;;;;;;;5026331;28;20140;-75
2022/06/27 04:35:50;;;;;;;4.93;1.90;;;14.60;84.90;;;;;;5027205;28;20108;-75
2022/06/27 04:38:18;;;;;;;4.95;1.60;;;15.10;84.40;;;;;;5027489;28;20465;-74
2022/06/27 04:40:44;;;;;;;7.00;1.77;;;14.50;85.50;;;;;;5027966;28;20037;-75
2022/06/27 04:43:10;;;;;;;4.68;1.60;;;;;;;;;;5027274;28;20374;-76
2022/06/27 04:45:36;;;;;;;5.07;1.75;;;15.30;86.10;;;;;;5022982;28;20425;-75
2022/06/27 04:48:04;;;;;;;5.68;2.00;;;;;;;;;;5027478;28;20087;-79
2022/06/27 04:50:32;;;;;;;4.32;2.08;;;;;;;;;;5027519;28;20040;-78
2022/06/27 04:53:00;;;;;;;5.47;1.85;;;14.60;90.30;;;;;;5028983;28;20084;-76
2022/06/27 04:55:26;;;;;;;6.45;2.05;;;13.80;89.70;;;;;;5028515;28;20038;-77
2022/06/27 04:57:53;;;;;;;6.55;2.35;;;;;;;;;;5024437;28;20030;-73
2022/06/27 05:00:19;;;;;;;5.15;1.70;;;15.10;89.50;;;;;;5028633;28;20543;-72
2022/06/27 05:02:46;;;;;;;8.40;1.88;;;15.70;76.70;;;;;;5027250;28;20052;-75
2022/06/27 05:05:12;;;;;;;5.95;2.10;;;14.90;91.20;;;;;;5023706;28;20086;-74
2022/06/27 05:07:38;;;;;;;7.32;2.20;;;13.90;88.70;;;;;;5025414;28;20057;-75
2022/06/27 05:10:05;;;;;;;6.28;2.13;;;15.20;90.60;;;;;;5020598;28;20032;-73
2022/06/27 05:12:32;;;;;;;4.95;1.80;;;;;;;;;;5029469;28;20038;-75
2022/06/27 05:14:58;;;;;;;6.20;1.75;;;;;;;;;;5028798;28;20026;-74
2022/06/27 05:17:24;;;;;;;5.22;1.80;;;13.80;87.90;;;;;;5024419;28;20111;-74
2022/06/27 05:19:50;;;;;;;5.78;1.80;;;15.10;89.90;;;;;;5023226;28;20045;-74
2022/06/27 05:22:16;;;;;;;5.32;1.77;;;15.10;91.70;;;;;;5028247;28;20535;-76
2022/06/27 05:24:42;;;;;;;6.45;1.80;;;15.40;81.40;;;;;;5036081;28;20029;-75
2022/06/27 05:27:09;;;;;;;5.47;1.80;;;;;;;;;;5027431;28;20101;-74
2022/06/27 05:29:36;;;;;;;5.68;2.05;;;15.30;90.50;;;;;;5023920;28;20136;-75
2022/06/27 05:32:02;;;;;;;6.53;1.75;;;14.60;77.20;;;;;;5023444;28;20112;-75
2022/06/27 05:34:27;;;;;;;5.65;1.88;;;15.70;82.50;;;;;;5025630;28;20096;-74
2022/06/27 05:36:54;;;;;;;4.25;1.75;;;14.80;92.30;;;;;;5026333;28;20033;-75
2022/06/27 05:39:20;;;;;;;5.05;2.10;;;;;;;;;;5028475;28;20036;-75
2022/06/27 05:41:46;;;;;;;8.73;2.10;;;;;;;;;;5024443;28;20045;-75
2022/06/27 05:44:15;;;;;;;5.82;2.00;;;14.80;85.10;;;;;;5019769;28;20026;-76
2022/06/27 05:46:41;;;;;;;8.52;2.10;;;15.60;81.90;;;;;;5021946;28;20037;-75
2022/06/27 05:49:11;;;;;;;9.57;2.50;;;15.50;81.50;;;;;;5028073;28;20056;-75
2022/06/27 05:51:38;;;;;;;5.43;2.30;;;15.40;73.10;;;;;;5025521;28;20061;-75
2022/06/27 05:54:09;;;;;;;7.75;2.60;;;15.90;74.50;;;;;;5019037;28;20037;-74
2022/06/27 05:56:41;;;;;;;4.95;1.92;;;15.70;73.40;;;;;;5019269;28;20524;-74
2022/06/27 05:59:07;;;;;;;7.78;2.13;;;17.70;95.20;;;;;;5018694;28;20654;-73
2022/06/27 06:01:36;;;;;;;8.82;2.05;;;;;;;;;;5023030;28;20045;-74
2022/06/27 06:04:03;;;;;;;10.82;1.70;;;;;;;;;;5017100;28;20401;-74
2022/06/27 06:06:29;;;;;;;10.70;1.65;;;;;;;;;;5023543;28;20095;-74
2022/06/27 06:08:57;;;;;;;14.13;1.95;;;16.20;73.20;;;;;;5022805;28;20030;-74
2022/06/27 06:11:23;;;;;;;7.13;1.70;;;16.50;73.10;;;;;;5025524;28;20102;-73
2022/06/27 06:13:50;;;;;;;8.05;1.48;;;16.50;90.80;;;;;;5023055;28;20033;-75
2022/06/27 06:16:19;;;;;;;7.60;1.70;;;;;;;;;;5022682;28;20344;-74
2022/06/27 06:18:52;;;;;;;9.10;1.90;;;17.00;71.40;;;;;;5023082;28;20065;-74
2022/06/27 06:21:19;;;;;;;9.32;1.70;;;17.10;73.90;;;;;;5024718;28;20129;-74
2022/06/27 06:23:45;;;;;;;9.73;1.60;;;;;;;;;;5021229;28;20091;-74
2022/06/27 06:26:14;;;;;;;10.30;1.58;;;;;;;;;;5025147;28;20039;-74
2022/06/27 06:28:40;;;;;;;6.93;1.80;;;17.50;70.10;;;;;;5025809;28;20112;-74
2022/06/27 06:31:07;;;;;;;9.25;1.50;;;17.80;70.30;;;;;;5027415;28;20045;-74
2022/06/27 06:33:33;;;;;;;8.50;1.60;;;18.00;69.50;;;;;;5011059;28;20036;-74
2022/06/27 06:35:58;;;;;;;10.05;1.77;;;18.20;68.70;;;;;;5022189;28;20030;-75
2022/06/27 06:38:25;;;;;;;10.50;2.00;;;18.50;67.80;;;;;;5057638;28;20056;-75
2022/06/27 06:40:50;;;;;;;10.07;1.80;;;19.30;71.90;;;;;;5026428;28;20041;-75
2022/06/27 06:43:16;;;;;;;8.02;1.60;;;18.90;66.80;;;;;;5024820;28;20029;-75
2022/06/27 06:45:42;;;;;;;8.43;1.73;;;19.10;66.10;;;;;;5012049;28;20022;-74
2022/06/27 06:48:08;;;;;;;8.27;1.70;;;19.40;65.20;;;;;;5025522;28;20392;-79
2022/06/27 06:50:35;;;;;;;11.32;1.75;;;19.60;63.70;;;;;;5016229;28;20054;-86
2022/06/27 06:53:01;;;;;;;8.75;1.70;;;18.90;70.60;;;;;;5026223;28;20029;-76
2022/06/27 06:55:27;;;;;;;9.98;1.80;;;;;;;;;;5026856;28;20473;-80
2022/06/27 06:57:57;;;;;;;8.38;1.63;;;;;;;;;;5015256;28;20642;-76
2022/06/27 07:00:23;;;;;;;6.50;1.45;;;22.50;74.20;;;;;;5019575;28;20030;-78
2022/06/27 07:02:49;;;;;;;8.45;1.40;;;24.60;63.00;;;;;;5017334;28;20044;-78
2022/06/27 07:05:16;;;;;;;9.65;1.50;;;27.00;62.40;;;;;;5025364;28;20030;-78
2022/06/27 07:07:42;;;;;;;9.43;1.67;;;25.50;40.80;;;;;;5026380;28;20040;-78
2022/06/27 07:10:09;;;;;;;9.18;1.30;;;25.40;54.70;;;;;;5027329;28;20048;-81
2022/06/27 07:12:38;;;;;;;8.73;1.83;;;25.50;43.80;;;;;;5031791;28;20041;-80
2022/06/27 07:15:09;;;;;;;12.20;1.80;;;26.90;49.70;;;;;;5022249;28;20025;-91
2022/06/27 07:17:47;;;;;;;7.85;1.65;;;27.20;49.30;;;;;;5026309;28;20514;-85
2022/06/27 07:20:15;;;;;;;14.55;2.30;;;27.50;56.70;;;;;;5026112;28;20033;-78
2022/06/27 07:22:42;;;;;;;13.18;1.98;;;27.80;50.60;;;;;;5024602;28;20485;-79
2022/06/27 07:25:09;;;;;;;10.18;1.70;;;;;;;;;;5029852;28;20103;-78
2022/06/27 07:27:36;;;;;;;10.68;1.60;;;28.70;43.80;;;;;;5028399;28;20049;-78
2022/06/27 07:30:04;;;;;;;9.55;1.50;;;30.20;35.40;;;;;;5027413;28;20476;-79
2022/06/27 07:32:31;;;;;;;9.10;1.65;;;28.90;32.00;;;;;;5029926;28;20168;-79
2022/06/27 07:34:58;;;;;;;7.95;1.60;;;27.70;38.00;;;;;;5030336;28;20026;-79
2022/06/27 07:37:25;;;;;;;10.55;1.58;;;29.80;44.10;;;;;;5030788;28;20025;-79
2022/06/27 07:39:51;;;;;;;10.75;1.60;;;;;;;;;;5015829;28;20032;-79
2022/06/27 07:42:17;;;;;;;9.75;1.50;;;;;;;;;;5027631;28;20517;-79
2022/06/27 07:44:43;;;;;;;8.15;1.42;;;23.30;49.70;;;;;;5021506;28;20081;-78
2022/06/27 07:47:09;;;;;;;7.75;1.52;;;;;;;;;;5025994;28;20513;-80
2022/06/27 07:49:35;;;;;;;12.05;1.88;;;26.30;45.80;;;;;;5025587;28;20111;-80
2022/06/27 07:52:01;;;;;;;9.77;1.50;;;23.80;43.40;;;;;;5014030;28;20116;-79
2022/06/27 07:54:27;;;;;;;11.88;1.70;;;23.20;46.80;;;;;;5029636;28;20119;-78
2022/06/27 07:56:55;;;;;;;9.25;1.70;;;25.30;51.70;;;;;;5024845;28;20022;-78
2022/06/27 07:59:22;;;;;;;11.95;2.10;;;;;;;;;;5026590;28;20096;-79
2022/06/27 08:01:48;;;;;;;12.48;1.80;;;23.60;53.00;;;;;;5025203;28;20033;-80
2022/06/27 08:04:15;;;;;;;7.82;1.80;;;21.50;52.30;;;;;;5030450;28;20037;-79
2022/06/27 08:06:42;;;;;;;8.93;1.92;;;21.50;53.00;;;;;;5014648;28;20112;-79
2022/06/27 08:09:09;;;;;;;8.38;1.50;;;22.00;52.90;;;;;;5021467;28;20097;-78
2022/06/27 08:11:37;;;;;;;9.00;1.65;;;21.40;53.40;;;;;;5022893;28;20515;-83
2022/06/27 08:14:09;;;;;;;9.32;1.70;;;22.80;54.90;;;;;;5019490;28;20037;-78
2022/06/27 08:16:37;;;;;;;6.68;1.20;;;23.50;54.70;;;;;;5018597;28;20466;-79
2022/06/27 08:19:03;;;;;;;9.63;1.50;;;23.70;43.70;;;;;;5023795;28;20432;-79
2022/06/27 08:21:30;;;;;;;8.10;1.50;;;23.90;43.30;;;;;;5022604;28;20041;-79
2022/06/27 08:24:00;;;;;;;7.43;1.48;;;24.10;41.10;;;;;;5054199;28;20083;-80
2022/06/27 08:26:28;;;;;;;6.68;1.38;;;24.20;41.90;;;;;;5025033;28;20455;-80
2022/06/27 08:28:54;;;;;;;8.30;1.50;;;24.40;41.90;;;;;;5027471;28;20029;-79
2022/06/27 08:31:20;;;;;;;10.75;1.88;;;24.70;42.40;;;;;;5027275;28;20115;-79
2022/06/27 08:33:49;;;;;;;8.27;1.60;;;24.70;42.40;;;;;;5013905;28;20105;-79
2022/06/27 08:36:17;;;;;;;7.03;1.40;;;24.80;41.70;;;;;;5028638;28;20041;-79
2022/06/27 08:38:49;;;;;;;6.15;1.38;;;24.80;41.10;;;;;;5027900;28;20025;-79
2022/06/27 08:41:16;;;;;;;7.72;1.20;;;24.90;40.60;;;;;;5023169;28;20103;-76
2022/06/27 08:43:43;;;;;;;7.78;1.20;;;25.00;39.70;;;;;;5019480;28;20026;-78
2022/06/27 08:46:15;;;;;;;5.70;1.10;;;25.00;38.00;;;;;;5024808;28;20033;-79
2022/06/27 08:48:42;;;;;;;7.82;1.10;;;25.10;37.50;;;;;;5029237;28;20030;-79
2022/06/27 08:51:09;;;;;;;6.13;1.05;;;25.10;35.90;;;;;;5026664;28;20037;-79
2022/06/27 08:53:39;;;;;;;7.80;1.10;;;25.10;37.40;;;;;;5023352;28;20579;-80
2022/06/27 08:56:10;;;;;;;6.03;0.98;;;25.40;36.90;;;;;;5025301;28;20025;-79
2022/06/27 08:58:37;;;;;;;6.35;1.20;;;25.60;37.30;;;;;;5016460;28;20033;-79
2022/06/27 09:01:04;;;;;;;6.60;1.10;;;25.60;37.60;;;;;;5027109;28;20658;-79
2022/06/27 09:03:32;;;;;;;6.78;1.20;;;25.40;36.10;;;;;;5027970;28;20052;-80
2022/06/27 09:06:04;;;;;;;7.25;1.15;;;25.30;34.70;;;;;;5027437;28;20423;-79
2022/06/27 09:08:33;;;;;;;5.68;1.10;;;25.50;34.30;;;;;;5021051;28;20053;-79
2022/06/27 09:11:00;;;;;;;5.90;1.08;;;25.70;34.40;;;;;;5020380;28;20401;-79
2022/06/27 09:13:27;;;;;;;6.95;1.08;;;26.20;31.70;;;;;;5024974;28;20219;-77
2022/06/27 09:16:00;;;;;;;7.20;1.30;;;26.10;32.80;;;;;;5019836;28;20132;-78
2022/06/27 09:18:32;;;;;;;6.65;1.52;;;26.90;35.90;;;;;;5028563;28;20068;-77
2022/06/27 09:20:59;;;;;;;5.82;1.20;;;27.70;30.50;;;;;;5013099;28;20033;-78
2022/06/27 09:23:39;;;;;;;4.68;1.17;;;27.60;31.50;;;;;;5020977;28;20021;-79
2022/06/27 09:26:10;;;;;;;5.70;1.03;;;27.70;31.00;;;;;;5024218;28;20030;-79
2022/06/27 09:28:42;;;;;;;11.10;1.17;;;30.20;30.20;;;;;;5025193;28;20519;-80
2022/06/27 09:31:10;;;;;;;7.10;1.10;;;30.10;28.90;;;;;;5022241;28;20497;-78
2022/06/27 09:33:41;;;;;;;6.63;1.17;;;31.10;27.40;;;;;;5028371;28;20116;-78
2022/06/27 09:36:14;;;;;;;5.60;1.00;;;33.00;26.60;;;;;;5021155;28;20251;-81
2022/06/27 09:38:42;;;;;;;5.20;0.90;;;32.60;25.00;;;;;;5012174;28;20038;-82
2022/06/27 09:41:13;;;;;;;6.70;1.10;;;33.50;24.40;;;;;;5015868;28;20022;-80
2022/06/27 09:43:46;;;;;;;5.25;1.02;;;34.30;24.20;;;;;;5017353;28;20112;-79
2022/06/27 09:46:13;;;;;;;5.60;1.00;;;33.10;25.30;;;;;;5015454;28;20025;-80
2022/06/27 09:48:44;;;;;;;5.88;1.02;;;31.80;25.00;;;;;;5009694;28;20100;-80
2022/06/27 09:51:15;;;;;;;5.32;0.85;;;33.10;24.10;;;;;;5015994;28;20041;-80
2022/06/27 09:53:50;;;;;;;5.40;0.93;;;34.20;23.20;;;;;;5022553;28;20503;-80
2022/06/27 09:56:20;;;;;;;7.18;1.10;;;35.20;22.30;;;;;;5018602;28;20033;-80
2022/06/27 09:58:46;;;;;;;6.30;0.93;;;34.50;22.80;;;;;;5017461;28;20025;-80
2022/06/27 10:01:12;;;;;;;6.50;0.90;;;34.40;22.80;;;;;;5012856;28;20041;-80
2022/06/27 10:03:39;;;;;;;5.93;1.00;;;35.50;22.10;;;;;;5024565;28;20029;-81
2022/06/27 10:06:05;;;;;;;5.93;0.90;;;36.40;21.60;;;;;;5012534;28;20041;-79
2022/06/27 10:08:32;;;;;;;7.35;1.08;;;34.60;22.70;;;;;;5016616;28;20536;-81
2022/06/27 10:11:06;;;;;;;5.07;0.98;;;34.70;22.70;;;;;;5011852;28;20064;-81
2022/06/27 10:13:33;;;;;;;4.40;0.88;;;36.10;21.60;;;;;;5012536;28;20063;-81
2022/06/27 10:16:06;;;;;;;5.38;0.73;;;37.10;21.50;;;;;;5010898;28;20045;-81
2022/06/27 10:19:05;;;;;;;6.28;0.95;;;37.70;20.10;;;;;;5028681;28;20050;-80
2022/06/27 10:21:39;;;;;;;4.22;0.90;;;39.80;19.80;;;;;;5025809;28;20041;-81
2022/06/27 10:24:21;;;;;;;5.70;0.85;;;38.70;18.50;;;;;;5013753;28;20030;-82
2022/06/27 10:26:53;;;;;;;4.53;0.80;;;39.10;18.00;;;;;;5014370;28;20112;-81
2022/06/27 10:29:32;;;;;;;5.22;1.10;;;39.40;17.40;;;;;;5013941;28;20034;-82
2022/06/27 10:31:58;;;;;;;3.88;0.73;;;39.90;15.70;;;;;;5012997;28;20049;-81
2022/06/27 10:34:39;;;;;;;4.10;0.80;;;39.90;16.40;;;;;;5011619;28;20598;-81
2022/06/27 10:37:26;;;;;;;5.93;1.10;;;40.00;16.50;;;;;;5024770;28;20420;-80
2022/06/27 10:40:15;;;;;;;3.63;0.80;;;39.50;17.20;;;;;;5024877;28;20036;-81
2022/06/27 10:42:54;;;;;;;4.72;0.90;;;39.50;17.30;;;;;;5024983;28;20029;-81
2022/06/27 10:45:20;;;;;;;5.40;1.02;;;36.20;19.50;;;;;;5012154;28;20084;-81
2022/06/27 10:47:49;;;;;;;3.22;0.85;;;36.00;22.80;;;;;;5013461;28;20532;-79
2022/06/27 10:50:18;;;;;;;7.43;1.00;;;36.40;20.00;;;;;;5015916;28;20046;-81
2022/06/27 10:52:44;;;;;;;4.20;0.95;;;35.70;20.70;;;;;;5023443;28;20091;-82
2022/06/27 10:55:23;;;;;;;6.50;0.98;;;37.30;19.50;;;;;;5007814;28;20034;-84
2022/06/27 10:57:50;;;;;;;4.00;0.90;;;38.50;18.60;;;;;;5022116;28;20148;-78
2022/06/27 11:00:39;;;;;;;7.63;1.00;;;37.20;19.20;;;;;;5024220;28;20025;-81
2022/06/27 11:03:08;;;;;;;5.43;1.00;;;38.80;18.90;;;;;;5015492;28;20087;-77
2022/06/27 11:06:03;;;;;;;4.95;0.82;;;35.50;20.40;;;;;;5019037;28;20299;-82
2022/06/27 11:08:33;;;;;;;5.32;0.93;;;37.80;19.50;;;;;;5022676;28;20021;-83
2022/06/27 11:10:59;;;;;;;4.38;0.95;;;36.10;21.10;;;;;;5025984;28;20038;-79
2022/06/27 11:13:48;;;;;;;6.60;0.95;;;31.90;28.50;;;;;;5022241;28;20033;-80
2022/06/27 11:16:25;;;;;;;5.00;0.95;;;33.40;23.00;;;;;;5019333;28;20148;-75
2022/06/27 11:19:02;;;;;;;6.22;1.00;;;33.30;26.80;;;;;;5052757;28;20052;-84
2022/06/27 11:21:37;;;;;;;4.68;0.88;;;32.30;23.00;;;;;;5017170;28;20028;-88
2022/06/27 11:24:11;;;;;;;4.10;0.95;;;34.10;22.00;;;;;;5015969;28;20034;-79
2022/06/27 11:26:48;;;;;;;3.55;0.98;;;32.00;28.90;;;;;;5024346;28;20473;-76
2022/06/27 11:32:12;;;;;;;4.80;1.00;;;30.20;25.10;;;;;;5020504;28;20501;-77
2022/06/27 11:34:49;;;;;;;5.95;1.80;;;31.40;29.70;;;;;;5020891;28;20034;-78
2022/06/27 11:37:21;;;;;;;4.32;1.30;;;31.20;24.90;;;;;;5021526;28;20029;-78
2022/06/27 11:40:04;;;;;;;5.18;1.20;;;33.20;23.40;;;;;;5025056;28;20112;-77
2022/06/27 11:42:32;;;;;;;5.75;1.15;;;31.20;29.80;;;;;;5019602;28;20080;-77
2022/06/27 11:45:12;;;;;;;4.80;0.88;;;31.10;24.60;;;;;;5023939;28;20567;-78
2022/06/27 11:47:41;;;;;;;;;;;31.50;24.90;;;;;;5024607;28;20616;-78
2022/06/27 11:50:12;;;;;;;4.28;0.90;;;30.50;34.80;;;;;;5015545;28;19915;-78
2022/06/27 11:53:01;;;;;;;4.45;0.80;;;28.90;27.40;;;;;;5020895;28;20037;-78
2022/06/27 11:55:27;;;;;;;4.88;1.00;;;28.70;38.40;;;;;;5023200;28;20041;-78
2022/06/27 11:57:55;;;;;;;3.80;0.90;;;28.90;37.20;;;;;;5030151;28;20033;-78
2022/06/27 12:00:26;;;;;;;6.38;1.10;;;27.90;29.10;;;;;;5030605;28;20052;-77
2022/06/27 12:03:06;;;;;;;5.95;0.90;;;28.70;40.90;;;;;;5026869;28;20083;-77
2022/06/27 12:05:33;;;;;;;;;;;29.00;32.00;;;;;;5018899;28;20037;-77
2022/06/27 12:08:01;;;;;;;5.63;1.00;;;29.10;38.20;;;;;;5027935;28;20281;-78
2022/06/27 12:10:38;;;;;;;4.28;0.73;;;29.40;40.50;;;;;;5025165;28;20048;-77
2022/06/27 12:13:07;;;;;;;4.70;0.80;;;28.80;31.10;;;;;;5013875;28;20401;-77
2022/06/27 12:15:34;;;;;;;4.00;0.68;;;29.20;30.60;;;;;;5030582;28;20511;-77
2022/06/27 12:18:01;;;;;;;4.50;1.20;;;28.30;29.50;;;;;;5027526;28;20133;-77
2022/06/27 12:20:29;;;;;;;7.35;1.00;;;27.90;29.40;;;;;;5012660;28;20033;-77
2022/06/27 12:22:55;;;;;;;4.60;1.00;;;27.50;29.60;;;;;;5011783;28;20029;-76
2022/06/27 12:25:22;;;;;;;3.97;0.85;;;27.20;30.00;;;;;;5017268;28;20038;-77
2022/06/27 12:27:49;;;;;;;7.00;0.95;;;26.90;30.20;;;;;;5013249;28;20029;-78
2022/06/27 12:30:15;;;;;;;4.80;1.00;;;26.70;30.70;;;;;;5012924;28;20026;-77
2022/06/27 12:32:41;;;;;;;7.13;1.08;;;26.60;31.30;;;;;;5014136;28;20045;-77
2022/06/27 12:35:08;;;;;;;5.82;0.90;;;26.60;34.30;;;;;;5020312;28;20530;-77
2022/06/27 12:37:35;;;;;;;4.55;1.02;;;26.60;30.90;;;;;;5012193;28;20524;-77
2022/06/27 12:40:02;;;;;;;5.47;1.00;;;27.20;42.60;;;;;;5011429;28;20443;-77
2022/06/27 12:42:28;;;;;;;5.40;1.10;;;;;;;;;;5012104;28;20030;-78
2022/06/27 12:44:54;;;;;;;3.95;0.90;;;;;;;;;;5013269;28;20057;-78
2022/06/27 12:47:20;;;;;;;5.13;0.80;;;28.00;40.30;;;;;;5020433;28;20373;-78
2022/06/27 12:49:46;;;;;;;5.00;1.10;;;27.50;41.00;;;;;;5012931;28;20064;-77
2022/06/27 12:52:12;;;;;;;4.53;0.82;;;27.80;40.40;;;;;;5011341;28;20115;-77
2022/06/27 12:54:38;;;;;;;2.95;0.65;;;27.60;34.40;;;;;;5011917;28;20420;-77
2022/06/27 12:57:05;;;;;;;4.20;0.82;;;27.00;29.90;;;;;;5023347;28;20025;-78
2022/06/27 12:59:31;;;;;;;3.53;0.60;;;27.70;41.40;;;;;;5022349;28;20040;-77
2022/06/27 13:01:57;;;;;;;3.63;0.80;;;27.60;38.90;;;;;;5018287;28;20044;-77
2022/06/27 13:04:23;;;;;;;2.45;0.57;;;27.40;30.30;;;;;;5012167;28;20047;-76
2022/06/27 13:06:49;;;;;;;4.28;0.70;;;27.30;40.70;;;;;;5015152;28;20044;-77
2022/06/27 13:09:15;;;;;;;4.38;0.60;;;;;;;;;;5022902;28;20527;-77
2022/06/27 13:11:41;;;;;;;4.43;0.63;;;27.50;39.30;;;;;;5021653;28;20041;-77